»·PEaware :: N611MW KSFO-KSBA

N611MW :: KSFO-KSBA

FLIGHT INFORMATION

Flight Status: Arrived
Operator: Privately registered:
United States
More flights under this callsign
Pilot: Lance W. (1958)
Aircraft: BOEING 737-700
(B737)
More flights by this aircraft type
Origin: KSFO San Francisco Intl
United States
Destination: KSBA Santa Barbara Mun
United States
More flights between these airports :: More routes between these airports
Route: +WESLA4 YYUNG GVO HABUT
File this flight plan on PilotEdge
Remarks:
Altitude:
(Current/Filed)
25,000ft
Speed:
(Current/Filed)
335kts
Departed: 26-Apr-19 12:13 PM
Arrived: 26-Apr-19 01:22 PM
Distance/Time
Traveled:
227nm/1:09
Distance/Time
To Go:
Arrived

Flight Plot

Page will automatically refresh every two minutes.

Flight plan parsing failed; only flown route is shown


Map Options




Map Legend


Flown Route
Filed Route
Departure Airport
Arrival Airport
Navaid (VOR, NDB)
Fix

Horizontal Profiles

Position Reports

Time Latitude Longitude Heading Altitude Ground
Speed
26-Apr-19 11:52 37.628266 -122.377943 295 16ft 0kts
26-Apr-19 11:53 37.628266 -122.377943 295 16ft 0kts
26-Apr-19 11:54 37.628267 -122.377944 295 16ft 0kts
26-Apr-19 11:55 37.628269 -122.377950 295 16ft 0kts
26-Apr-19 11:56 37.628270 -122.377953 295 16ft 0kts
26-Apr-19 11:57 37.628270 -122.377953 295 16ft 0kts
26-Apr-19 11:58 37.628270 -122.377953 295 16ft 0kts
26-Apr-19 11:59 37.628270 -122.377953 295 16ft 0kts
26-Apr-19 12:00 37.628270 -122.377953 295 16ft 0kts
26-Apr-19 12:01 37.628270 -122.377953 295 16ft 0kts
26-Apr-19 12:02 37.628270 -122.377953 295 16ft 0kts
26-Apr-19 12:03 37.628270 -122.377953 295 16ft 0kts
26-Apr-19 12:04 37.628270 -122.377953 295 16ft 0kts
26-Apr-19 12:05 37.628270 -122.377953 295 16ft 0kts
26-Apr-19 12:06 37.628270 -122.377953 295 16ft 0kts
26-Apr-19 12:07 37.627086 -122.380254 218 16ft 0kts
26-Apr-19 12:08 37.625393 -122.381331 153 16ft 17kts
26-Apr-19 12:09 37.622943 -122.375850 120 16ft 17kts
26-Apr-19 12:10 37.622346 -122.375462 225 16ft 0kts
26-Apr-19 12:11 37.622108 -122.377420 297 16ft 25kts
26-Apr-19 12:12 37.641673 -122.422322 297 1225ft 195kts
26-Apr-19 12:13 37.665271 -122.482067 297 2911ft 188kts
26-Apr-19 12:14 37.656655 -122.537837 194 4633ft 202kts
26-Apr-19 12:15 37.607364 -122.514371 166 7097ft 190kts
26-Apr-19 12:16 37.555686 -122.497829 165 9596ft 193kts
26-Apr-19 12:17 37.502338 -122.478991 166 12119ft 203kts
26-Apr-19 12:18 37.446901 -122.482680 191 14649ft 200kts
26-Apr-19 12:19 37.392546 -122.492671 192 17242ft 195kts
26-Apr-19 12:20 37.336738 -122.503110 192 19363ft 214kts
26-Apr-19 12:21 37.276113 -122.514335 192 21173ft 223kts
26-Apr-19 12:22 37.213924 -122.525853 192 22974ft 231kts
26-Apr-19 12:23 37.149656 -122.537745 192 24581ft 238kts
26-Apr-19 12:24 37.080710 -122.550522 191 25092ft 265kts
26-Apr-19 12:25 37.004337 -122.558089 170 25089ft 288kts
26-Apr-19 12:26 36.932214 -122.509376 153 25087ft 297kts
26-Apr-19 12:27 36.860752 -122.457040 152 25078ft 297kts
26-Apr-19 12:28 36.789805 -122.405005 152 25086ft 295kts
26-Apr-19 12:29 36.719012 -122.353195 152 25085ft 294kts
26-Apr-19 12:30 36.648350 -122.301593 152 25085ft 294kts
26-Apr-19 12:31 36.577807 -122.250189 152 25084ft 293kts
26-Apr-19 12:32 36.507346 -122.198951 152 25081ft 293kts
26-Apr-19 12:33 36.436826 -122.147783 152 25081ft 293kts
26-Apr-19 12:34 36.366473 -122.096842 152 25081ft 292kts
26-Apr-19 12:35 36.296142 -122.046234 151 25081ft 292kts
26-Apr-19 12:36 36.225996 -121.995456 152 25078ft 292kts
26-Apr-19 12:37 36.155553 -121.944767 152 25076ft 292kts
26-Apr-19 12:38 36.085314 -121.894340 152 25073ft 292kts
26-Apr-19 12:39 36.015232 -121.843986 149 25070ft 292kts
26-Apr-19 12:40 35.959906 -121.769375 129 25068ft 296kts
26-Apr-19 12:41 35.909421 -121.688759 129 25065ft 297kts
26-Apr-19 12:42 35.858924 -121.608499 130 25063ft 297kts
26-Apr-19 12:43 35.808100 -121.527917 130 25059ft 297kts
26-Apr-19 12:44 35.757389 -121.447701 130 25055ft 297kts
26-Apr-19 12:45 35.706561 -121.367488 130 25037ft 297kts
26-Apr-19 12:46 35.656228 -121.288238 130 25045ft 297kts
26-Apr-19 12:47 35.605200 -121.208082 130 25054ft 298kts
26-Apr-19 12:48 35.555231 -121.129771 130 25054ft 298kts
26-Apr-19 12:49 35.501096 -121.053537 143 25056ft 295kts
26-Apr-19 12:50 35.437336 -120.989302 142 25059ft 296kts
26-Apr-19 12:51 35.376360 -120.927909 142 24116ft 297kts
26-Apr-19 12:52 35.314448 -120.865778 142 22735ft 291kts
26-Apr-19 12:53 35.251472 -120.802743 142 21310ft 288kts
26-Apr-19 12:54 35.192058 -120.743368 142 19937ft 275kts
26-Apr-19 12:55 35.134768 -120.686243 142 18541ft 264kts
26-Apr-19 12:56 35.079539 -120.631296 142 17163ft 260kts
26-Apr-19 12:57 35.023624 -120.575756 142 15753ft 258kts
26-Apr-19 12:58 34.967950 -120.520544 142 14339ft 256kts
26-Apr-19 12:59 34.913634 -120.466773 142 12949ft 253kts
26-Apr-19 13:00 34.859526 -120.413306 141 11537ft 248kts
26-Apr-19 13:01 34.806207 -120.360711 141 10126ft 242kts
26-Apr-19 13:02 34.758838 -120.314045 141 8342ft 198kts
26-Apr-19 13:03 34.719148 -120.275056 141 7005ft 154kts
26-Apr-19 13:04 34.682355 -120.238947 141 6984ft 200kts
26-Apr-19 13:05 34.640297 -120.197661 141 6968ft 188kts
26-Apr-19 13:06 34.601382 -120.159533 141 6964ft 182kts
26-Apr-19 13:07 34.561812 -120.120814 142 6967ft 179kts
26-Apr-19 13:08 34.519452 -120.090834 180 6964ft 167kts
26-Apr-19 13:09 34.474554 -120.090614 181 6965ft 157kts
26-Apr-19 13:10 34.431813 -120.091388 181 6968ft 152kts
26-Apr-19 13:11 34.385921 -120.092314 181 5950ft 163kts
26-Apr-19 13:12 34.342402 -120.093673 181 4446ft 154kts
26-Apr-19 13:13 34.340230 -120.126223 358 3978ft 152kts
26-Apr-19 13:14 34.374491 -120.096655 43 3473ft 147kts
26-Apr-19 13:16 34.407402 -120.068168 33 2121ft 143kts
26-Apr-19 13:17 34.424709 -120.029380 90 1981ft 141kts
26-Apr-19 13:18 34.424961 -119.982249 89 1973ft 126kts
26-Apr-19 13:19 34.425790 -119.938808 89 1433ft 131kts
26-Apr-19 13:20 34.426664 -119.896613 89 729ft 120kts
26-Apr-19 13:21 34.427407 -119.858597 89 98ft 100kts
26-Apr-19 13:22 34.427977 -119.838912 33 13ft 16kts
26-Apr-19 13:23 34.428602 -119.838914 342 13ft 0kts
26-Apr-19 13:24 34.429894 -119.839288 347 13ft 14kts
26-Apr-19 13:25 34.430032 -119.842406 274 13ft 0kts
26-Apr-19 13:26 34.430032 -119.842406 274 13ft 0kts

Navigation Log

Ident Type
Flight plan parsing failed, navigation log unavailable